sensor_id;sensor_type;location;lat;lon;timestamp;temperature;humidity
22850;DHT22;11591;44.792;10.358;2023-05-20T00:00:35;15.60;99.90
22850;DHT22;11591;44.792;10.358;2023-05-20T00:03:00;15.50;99.90
22850;DHT22;11591;44.792;10.358;2023-05-20T00:05:26;15.50;99.90
22850;DHT22;11591;44.792;10.358;2023-05-20T00:07:52;15.50;99.90
22850;DHT22;11591;44.792;10.358;2023-05-20T00:10:18;15.50;99.90
22850;DHT22;11591;44.792;10.358;2023-05-20T00:12:43;15.50;99.90
22850;DHT22;11591;44.792;10.358;2023-05-20T00:15:09;15.50;99.90
22850;DHT22;11591;44.792;10.358;2023-05-20T00:17:37;15.40;99.90
22850;DHT22;11591;44.792;10.358;2023-05-20T00:20:03;15.40;99.90
22850;DHT22;11591;44.792;10.358;2023-05-20T00:22:30;15.40;99.90
22850;DHT22;11591;44.792;10.358;2023-05-20T00:24:56;15.40;99.90
22850;DHT22;11591;44.792;10.358;2023-05-20T00:27:21;15.40;99.90
22850;DHT22;11591;44.792;10.358;2023-05-20T00:29:47;15.40;99.90
22850;DHT22;11591;44.792;10.358;2023-05-20T00:32:13;15.50;99.90
22850;DHT22;11591;44.792;10.358;2023-05-20T00:34:39;15.40;99.90
22850;DHT22;11591;44.792;10.358;2023-05-20T00:37:05;15.50;99.90
22850;DHT22;11591;44.792;10.358;2023-05-20T00:39:30;15.40;99.90
22850;DHT22;11591;44.792;10.358;2023-05-20T00:41:56;15.40;99.90
22850;DHT22;11591;44.792;10.358;2023-05-20T00:44:27;15.40;99.90
22850;DHT22;11591;44.792;10.358;2023-05-20T00:46:53;15.50;99.90
22850;DHT22;11591;44.792;10.358;2023-05-20T00:49:19;15.40;99.90
22850;DHT22;11591;44.792;10.358;2023-05-20T00:51:47;15.40;99.90
22850;DHT22;11591;44.792;10.358;2023-05-20T00:54:13;15.40;99.90
22850;DHT22;11591;44.792;10.358;2023-05-20T00:56:39;15.40;99.90
22850;DHT22;11591;44.792;10.358;2023-05-20T00:59:06;15.40;99.90
22850;DHT22;11591;44.792;10.358;2023-05-20T01:01:31;15.30;99.90
22850;DHT22;11591;44.792;10.358;2023-05-20T01:03:58;15.40;99.90
22850;DHT22;11591;44.792;10.358;2023-05-20T01:06:24;15.40;99.90
22850;DHT22;11591;44.792;10.358;2023-05-20T01:08:50;15.30;99.90
22850;DHT22;11591;44.792;10.358;2023-05-20T01:11:33;15.30;99.90
22850;DHT22;11591;44.792;10.358;2023-05-20T01:14:06;15.30;99.90
22850;DHT22;11591;44.792;10.358;2023-05-20T01:16:34;15.30;99.90
22850;DHT22;11591;44.792;10.358;2023-05-20T01:19:01;15.30;99.90
22850;DHT22;11591;44.792;10.358;2023-05-20T01:21:30;15.30;99.90
22850;DHT22;11591;44.792;10.358;2023-05-20T01:23:56;15.30;99.90
22850;DHT22;11591;44.792;10.358;2023-05-20T01:26:22;15.30;99.90
22850;DHT22;11591;44.792;10.358;2023-05-20T01:28:51;15.20;99.90
22850;DHT22;11591;44.792;10.358;2023-05-20T01:31:23;15.20;99.90
22850;DHT22;11591;44.792;10.358;2023-05-20T01:33:54;15.20;99.90
22850;DHT22;11591;44.792;10.358;2023-05-20T01:36:21;15.20;99.90
22850;DHT22;11591;44.792;10.358;2023-05-20T01:38:48;15.20;99.90
22850;DHT22;11591;44.792;10.358;2023-05-20T01:41:14;15.20;99.90
22850;DHT22;11591;44.792;10.358;2023-05-20T01:43:40;15.20;99.90
22850;DHT22;11591;44.792;10.358;2023-05-20T01:46:07;15.20;99.90
22850;DHT22;11591;44.792;10.358;2023-05-20T01:48:33;15.10;99.90
22850;DHT22;11591;44.792;10.358;2023-05-20T01:50:59;15.20;99.90
22850;DHT22;11591;44.792;10.358;2023-05-20T01:53:24;15.10;99.90
22850;DHT22;11591;44.792;10.358;2023-05-20T01:55:50;15.10;99.90
22850;DHT22;11591;44.792;10.358;2023-05-20T01:58:16;15.10;99.90
22850;DHT22;11591;44.792;10.358;2023-05-20T02:00:42;15.10;99.90
22850;DHT22;11591;44.792;10.358;2023-05-20T02:03:08;15.10;99.90
22850;DHT22;11591;44.792;10.358;2023-05-20T02:05:34;15.10;99.90
22850;DHT22;11591;44.792;10.358;2023-05-20T02:08:03;15.10;99.90
22850;DHT22;11591;44.792;10.358;2023-05-20T02:10:29;15.00;99.90
22850;DHT22;11591;44.792;10.358;2023-05-20T02:12:55;15.00;99.90
22850;DHT22;11591;44.792;10.358;2023-05-20T02:15:20;15.10;99.90
22850;DHT22;11591;44.792;10.358;2023-05-20T02:17:46;15.10;99.90
22850;DHT22;11591;44.792;10.358;2023-05-20T02:20:13;15.10;99.90
22850;DHT22;11591;44.792;10.358;2023-05-20T02:22:39;15.10;99.90
22850;DHT22;11591;44.792;10.358;2023-05-20T02:25:05;15.00;99.90
22850;DHT22;11591;44.792;10.358;2023-05-20T02:27:31;15.00;99.90
22850;DHT22;11591;44.792;10.358;2023-05-20T02:29:58;15.10;99.90
22850;DHT22;11591;44.792;10.358;2023-05-20T02:32:24;15.10;99.90
22850;DHT22;11591;44.792;10.358;2023-05-20T02:34:53;15.10;99.90
22850;DHT22;11591;44.792;10.358;2023-05-20T02:37:19;15.10;99.90
22850;DHT22;11591;44.792;10.358;2023-05-20T02:39:45;15.10;99.90
22850;DHT22;11591;44.792;10.358;2023-05-20T02:42:12;15.00;99.90
22850;DHT22;11591;44.792;10.358;2023-05-20T02:44:38;15.10;99.90
22850;DHT22;11591;44.792;10.358;2023-05-20T02:47:04;15.00;99.90
22850;DHT22;11591;44.792;10.358;2023-05-20T02:49:29;15.00;99.90
22850;DHT22;11591;44.792;10.358;2023-05-20T02:51:55;15.00;99.90
22850;DHT22;11591;44.792;10.358;2023-05-20T02:54:21;15.00;99.90
22850;DHT22;11591;44.792;10.358;2023-05-20T02:56:47;15.10;99.90
22850;DHT22;11591;44.792;10.358;2023-05-20T02:59:13;15.10;99.90
22850;DHT22;11591;44.792;10.358;2023-05-20T03:01:39;15.10;99.90
22850;DHT22;11591;44.792;10.358;2023-05-20T03:04:05;15.10;99.90
22850;DHT22;11591;44.792;10.358;2023-05-20T03:06:31;15.20;99.90
22850;DHT22;11591;44.792;10.358;2023-05-20T03:08:57;15.20;99.90
22850;DHT22;11591;44.792;10.358;2023-05-20T03:11:24;15.10;99.90
22850;DHT22;11591;44.792;10.358;2023-05-20T03:13:50;15.00;99.90
22850;DHT22;11591;44.792;10.358;2023-05-20T03:16:16;14.90;99.90
22850;DHT22;11591;44.792;10.358;2023-05-20T03:18:43;14.90;99.90
22850;DHT22;11591;44.792;10.358;2023-05-20T03:21:10;14.80;99.90
22850;DHT22;11591;44.792;10.358;2023-05-20T03:23:36;14.70;99.90
22850;DHT22;11591;44.792;10.358;2023-05-20T03:26:02;14.60;99.90
22850;DHT22;11591;44.792;10.358;2023-05-20T03:28:28;14.50;99.90
22850;DHT22;11591;44.792;10.358;2023-05-20T03:30:54;14.50;99.90
22850;DHT22;11591;44.792;10.358;2023-05-20T03:33:20;14.40;99.90
22850;DHT22;11591;44.792;10.358;2023-05-20T03:35:47;14.50;99.90
22850;DHT22;11591;44.792;10.358;2023-05-20T03:38:15;14.50;99.90
22850;DHT22;11591;44.792;10.358;2023-05-20T03:40:40;14.50;99.90
22850;DHT22;11591;44.792;10.358;2023-05-20T03:43:06;14.50;99.90
22850;DHT22;11591;44.792;10.358;2023-05-20T03:45:33;14.50;99.90
22850;DHT22;11591;44.792;10.358;2023-05-20T03:48:04;14.50;99.90
22850;DHT22;11591;44.792;10.358;2023-05-20T03:50:32;14.50;99.90
22850;DHT22;11591;44.792;10.358;2023-05-20T03:52:59;14.40;99.90
22850;DHT22;11591;44.792;10.358;2023-05-20T03:55:25;14.40;99.90
22850;DHT22;11591;44.792;10.358;2023-05-20T03:57:53;14.40;99.90
22850;DHT22;11591;44.792;10.358;2023-05-20T04:00:20;14.40;99.90
22850;DHT22;11591;44.792;10.358;2023-05-20T04:02:47;14.30;99.90
22850;DHT22;11591;44.792;10.358;2023-05-20T04:05:16;14.40;99.90
22850;DHT22;11591;44.792;10.358;2023-05-20T04:07:42;14.30;99.90
22850;DHT22;11591;44.792;10.358;2023-05-20T04:10:08;14.30;99.90
22850;DHT22;11591;44.792;10.358;2023-05-20T04:12:34;14.30;99.90
22850;DHT22;11591;44.792;10.358;2023-05-20T04:15:02;14.30;99.90
22850;DHT22;11591;44.792;10.358;2023-05-20T04:17:34;14.30;99.90
22850;DHT22;11591;44.792;10.358;2023-05-20T04:20:03;14.30;99.90
22850;DHT22;11591;44.792;10.358;2023-05-20T04:22:32;14.30;99.90
22850;DHT22;11591;44.792;10.358;2023-05-20T04:24:59;14.40;99.90
22850;DHT22;11591;44.792;10.358;2023-05-20T04:27:25;14.50;99.90
22850;DHT22;11591;44.792;10.358;2023-05-20T04:29:51;14.50;99.90
22850;DHT22;11591;44.792;10.358;2023-05-20T04:32:19;14.40;99.90
22850;DHT22;11591;44.792;10.358;2023-05-20T04:34:46;14.40;99.90
22850;DHT22;11591;44.792;10.358;2023-05-20T04:37:13;14.40;99.90
22850;DHT22;11591;44.792;10.358;2023-05-20T04:39:40;14.40;99.90
22850;DHT22;11591;44.792;10.358;2023-05-20T04:42:08;14.50;99.90
22850;DHT22;11591;44.792;10.358;2023-05-20T04:44:34;14.50;99.90
22850;DHT22;11591;44.792;10.358;2023-05-20T04:47:00;14.50;99.90
22850;DHT22;11591;44.792;10.358;2023-05-20T04:49:26;14.50;99.90
22850;DHT22;11591;44.792;10.358;2023-05-20T04:51:51;14.50;99.90
22850;DHT22;11591;44.792;10.358;2023-05-20T04:54:19;14.60;99.90
22850;DHT22;11591;44.792;10.358;2023-05-20T04:56:45;14.50;99.90
22850;DHT22;11591;44.792;10.358;2023-05-20T04:59:12;14.70;99.90
22850;DHT22;11591;44.792;10.358;2023-05-20T05:01:40;14.70;99.90
22850;DHT22;11591;44.792;10.358;2023-05-20T05:04:06;14.60;99.90
22850;DHT22;11591;44.792;10.358;2023-05-20T05:06:31;14.60;99.90
22850;DHT22;11591;44.792;10.358;2023-05-20T05:08:58;14.70;99.90
22850;DHT22;11591;44.792;10.358;2023-05-20T05:11:25;14.70;99.90
22850;DHT22;11591;44.792;10.358;2023-05-20T05:13:51;14.80;99.90
22850;DHT22;11591;44.792;10.358;2023-05-20T05:16:19;14.80;99.90
22850;DHT22;11591;44.792;10.358;2023-05-20T05:18:45;14.90;99.90
22850;DHT22;11591;44.792;10.358;2023-05-20T05:21:11;14.80;99.90
22850;DHT22;11591;44.792;10.358;2023-05-20T05:23:37;14.90;99.90
22850;DHT22;11591;44.792;10.358;2023-05-20T05:26:03;14.80;99.90
22850;DHT22;11591;44.792;10.358;2023-05-20T05:28:29;14.80;99.90
22850;DHT22;11591;44.792;10.358;2023-05-20T05:30:56;14.80;99.90
22850;DHT22;11591;44.792;10.358;2023-05-20T05:33:22;14.80;99.90
22850;DHT22;11591;44.792;10.358;2023-05-20T05:35:48;14.70;99.90
22850;DHT22;11591;44.792;10.358;2023-05-20T05:38:14;14.60;99.90
22850;DHT22;11591;44.792;10.358;2023-05-20T05:40:40;14.70;99.90
22850;DHT22;11591;44.792;10.358;2023-05-20T05:43:06;14.70;99.90
22850;DHT22;11591;44.792;10.358;2023-05-20T05:45:33;14.70;99.90
22850;DHT22;11591;44.792;10.358;2023-05-20T05:47:59;14.80;99.90
22850;DHT22;11591;44.792;10.358;2023-05-20T05:50:25;14.80;99.90
22850;DHT22;11591;44.792;10.358;2023-05-20T05:52:52;14.80;99.90
22850;DHT22;11591;44.792;10.358;2023-05-20T05:55:18;14.80;99.90
22850;DHT22;11591;44.792;10.358;2023-05-20T05:57:44;14.80;99.90
22850;DHT22;11591;44.792;10.358;2023-05-20T06:00:13;14.80;99.90
22850;DHT22;11591;44.792;10.358;2023-05-20T06:02:46;14.80;99.90
22850;DHT22;11591;44.792;10.358;2023-05-20T06:05:23;14.80;99.90
22850;DHT22;11591;44.792;10.358;2023-05-20T06:07:52;14.90;99.90
22850;DHT22;11591;44.792;10.358;2023-05-20T06:10:18;14.90;99.90
22850;DHT22;11591;44.792;10.358;2023-05-20T06:12:44;14.90;99.90
22850;DHT22;11591;44.792;10.358;2023-05-20T06:15:10;14.90;99.90
22850;DHT22;11591;44.792;10.358;2023-05-20T06:17:37;14.90;99.90
22850;DHT22;11591;44.792;10.358;2023-05-20T06:20:03;14.80;99.90
22850;DHT22;11591;44.792;10.358;2023-05-20T06:22:29;14.90;99.90
22850;DHT22;11591;44.792;10.358;2023-05-20T06:24:55;14.90;99.90
22850;DHT22;11591;44.792;10.358;2023-05-20T06:27:25;14.80;99.90
22850;DHT22;11591;44.792;10.358;2023-05-20T06:29:52;14.90;99.90
22850;DHT22;11591;44.792;10.358;2023-05-20T06:32:18;14.90;99.90
22850;DHT22;11591;44.792;10.358;2023-05-20T06:34:44;15.00;99.90
22850;DHT22;11591;44.792;10.358;2023-05-20T06:37:11;15.00;99.90
22850;DHT22;11591;44.792;10.358;2023-05-20T06:39:37;14.90;99.90
22850;DHT22;11591;44.792;10.358;2023-05-20T06:42:02;14.90;99.90
22850;DHT22;11591;44.792;10.358;2023-05-20T06:44:33;14.90;99.90
22850;DHT22;11591;44.792;10.358;2023-05-20T06:47:10;14.90;99.90
22850;DHT22;11591;44.792;10.358;2023-05-20T06:49:36;14.90;99.90
22850;DHT22;11591;44.792;10.358;2023-05-20T06:52:02;14.90;99.90
22850;DHT22;11591;44.792;10.358;2023-05-20T06:54:28;14.90;99.90
22850;DHT22;11591;44.792;10.358;2023-05-20T06:56:54;14.90;99.90
22850;DHT22;11591;44.792;10.358;2023-05-20T06:59:20;14.90;99.90
22850;DHT22;11591;44.792;10.358;2023-05-20T07:01:46;14.90;99.90
22850;DHT22;11591;44.792;10.358;2023-05-20T07:04:13;14.90;99.90
22850;DHT22;11591;44.792;10.358;2023-05-20T07:06:39;14.90;99.90
22850;DHT22;11591;44.792;10.358;2023-05-20T07:09:05;14.90;99.90
22850;DHT22;11591;44.792;10.358;2023-05-20T07:11:32;15.00;99.90
22850;DHT22;11591;44.792;10.358;2023-05-20T07:13:58;15.00;99.90
22850;DHT22;11591;44.792;10.358;2023-05-20T07:16:24;15.00;99.90
22850;DHT22;11591;44.792;10.358;2023-05-20T07:18:53;15.00;99.90
22850;DHT22;11591;44.792;10.358;2023-05-20T07:21:19;15.10;99.90
22850;DHT22;11591;44.792;10.358;2023-05-20T07:24:00;15.10;99.90
22850;DHT22;11591;44.792;10.358;2023-05-20T07:26:26;15.20;99.90
22850;DHT22;11591;44.792;10.358;2023-05-20T07:28:51;15.20;99.90
22850;DHT22;11591;44.792;10.358;2023-05-20T07:31:17;15.30;99.90
22850;DHT22;11591;44.792;10.358;2023-05-20T07:33:44;15.30;99.90
22850;DHT22;11591;44.792;10.358;2023-05-20T07:36:10;15.30;99.90
22850;DHT22;11591;44.792;10.358;2023-05-20T07:38:38;15.40;99.90
22850;DHT22;11591;44.792;10.358;2023-05-20T07:41:06;15.40;99.90
22850;DHT22;11591;44.792;10.358;2023-05-20T07:43:33;15.40;99.90
22850;DHT22;11591;44.792;10.358;2023-05-20T07:46:00;15.50;99.90
22850;DHT22;11591;44.792;10.358;2023-05-20T07:48:26;15.50;99.90
22850;DHT22;11591;44.792;10.358;2023-05-20T07:50:52;15.50;99.90
22850;DHT22;11591;44.792;10.358;2023-05-20T07:53:18;15.60;99.90
22850;DHT22;11591;44.792;10.358;2023-05-20T07:55:44;15.60;99.90
22850;DHT22;11591;44.792;10.358;2023-05-20T07:58:10;15.60;99.90
22850;DHT22;11591;44.792;10.358;2023-05-20T08:00:36;15.70;99.90
22850;DHT22;11591;44.792;10.358;2023-05-20T08:03:05;15.70;99.90
22850;DHT22;11591;44.792;10.358;2023-05-20T08:05:54;15.70;99.90
22850;DHT22;11591;44.792;10.358;2023-05-20T08:08:20;15.80;99.90
22850;DHT22;11591;44.792;10.358;2023-05-20T08:11:01;15.80;99.90
22850;DHT22;11591;44.792;10.358;2023-05-20T08:13:28;15.80;99.90
22850;DHT22;11591;44.792;10.358;2023-05-20T08:15:55;15.80;99.90
22850;DHT22;11591;44.792;10.358;2023-05-20T08:18:21;15.80;99.90
22850;DHT22;11591;44.792;10.358;2023-05-20T08:20:47;15.70;99.90
22850;DHT22;11591;44.792;10.358;2023-05-20T08:23:13;15.80;99.90
22850;DHT22;11591;44.792;10.358;2023-05-20T08:25:39;15.70;99.90
22850;DHT22;11591;44.792;10.358;2023-05-20T08:28:07;15.80;99.90
22850;DHT22;11591;44.792;10.358;2023-05-20T08:30:36;15.80;99.90
22850;DHT22;11591;44.792;10.358;2023-05-20T08:33:01;15.90;99.90
22850;DHT22;11591;44.792;10.358;2023-05-20T08:35:28;15.90;99.90
22850;DHT22;11591;44.792;10.358;2023-05-20T08:37:54;15.90;99.90
22850;DHT22;11591;44.792;10.358;2023-05-20T08:40:20;15.90;99.90
22850;DHT22;11591;44.792;10.358;2023-05-20T08:42:50;15.90;99.90
22850;DHT22;11591;44.792;10.358;2023-05-20T08:45:20;15.90;99.90
22850;DHT22;11591;44.792;10.358;2023-05-20T08:47:52;15.90;99.90
22850;DHT22;11591;44.792;10.358;2023-05-20T08:50:19;15.90;99.90
22850;DHT22;11591;44.792;10.358;2023-05-20T08:52:46;15.90;99.90
22850;DHT22;11591;44.792;10.358;2023-05-20T08:55:17;15.90;99.90
22850;DHT22;11591;44.792;10.358;2023-05-20T08:57:50;15.90;99.90
22850;DHT22;11591;44.792;10.358;2023-05-20T09:00:16;15.90;99.90
22850;DHT22;11591;44.792;10.358;2023-05-20T09:02:44;15.90;99.90
22850;DHT22;11591;44.792;10.358;2023-05-20T09:05:10;16.00;99.90
22850;DHT22;11591;44.792;10.358;2023-05-20T09:07:36;16.00;99.90
22850;DHT22;11591;44.792;10.358;2023-05-20T09:10:03;16.00;99.90
22850;DHT22;11591;44.792;10.358;2023-05-20T09:12:29;16.00;99.90
22850;DHT22;11591;44.792;10.358;2023-05-20T09:14:55;15.90;99.90
22850;DHT22;11591;44.792;10.358;2023-05-20T09:17:22;15.90;99.90
22850;DHT22;11591;44.792;10.358;2023-05-20T09:19:52;16.00;99.90
22850;DHT22;11591;44.792;10.358;2023-05-20T09:22:25;16.00;99.90
22850;DHT22;11591;44.792;10.358;2023-05-20T09:24:52;15.90;99.90
22850;DHT22;11591;44.792;10.358;2023-05-20T09:27:21;16.00;99.90
22850;DHT22;11591;44.792;10.358;2023-05-20T09:29:49;16.00;99.90
22850;DHT22;11591;44.792;10.358;2023-05-20T09:32:15;16.00;99.90
22850;DHT22;11591;44.792;10.358;2023-05-20T09:34:41;16.00;99.90
22850;DHT22;11591;44.792;10.358;2023-05-20T09:37:08;16.00;99.90
22850;DHT22;11591;44.792;10.358;2023-05-20T09:39:43;16.00;99.90
22850;DHT22;11591;44.792;10.358;2023-05-20T09:42:21;16.00;99.90
22850;DHT22;11591;44.792;10.358;2023-05-20T09:44:52;16.00;99.90
22850;DHT22;11591;44.792;10.358;2023-05-20T09:47:23;16.00;99.90
22850;DHT22;11591;44.792;10.358;2023-05-20T09:49:51;16.00;99.90
22850;DHT22;11591;44.792;10.358;2023-05-20T09:52:18;15.80;99.90
22850;DHT22;11591;44.792;10.358;2023-05-20T09:54:44;15.80;99.90
22850;DHT22;11591;44.792;10.358;2023-05-20T09:57:11;15.90;99.90
22850;DHT22;11591;44.792;10.358;2023-05-20T09:59:39;15.90;99.90
22850;DHT22;11591;44.792;10.358;2023-05-20T10:02:06;15.80;99.90
22850;DHT22;11591;44.792;10.358;2023-05-20T10:04:37;15.80;99.90
22850;DHT22;11591;44.792;10.358;2023-05-20T10:11:10;15.70;99.90
22850;DHT22;11591;44.792;10.358;2023-05-20T10:21:15;15.90;99.90
22850;DHT22;11591;44.792;10.358;2023-05-20T10:23:41;15.90;99.90
22850;DHT22;11591;44.792;10.358;2023-05-20T10:26:07;15.90;99.90
22850;DHT22;11591;44.792;10.358;2023-05-20T10:28:34;15.90;99.90
22850;DHT22;11591;44.792;10.358;2023-05-20T10:31:20;15.90;99.90
22850;DHT22;11591;44.792;10.358;2023-05-20T10:33:46;15.90;99.90
22850;DHT22;11591;44.792;10.358;2023-05-20T10:36:25;16.00;99.90
22850;DHT22;11591;44.792;10.358;2023-05-20T10:39:03;16.00;99.90
22850;DHT22;11591;44.792;10.358;2023-05-20T10:41:29;16.10;99.90
22850;DHT22;11591;44.792;10.358;2023-05-20T10:44:03;16.20;99.90
22850;DHT22;11591;44.792;10.358;2023-05-20T10:46:30;16.20;99.90
22850;DHT22;11591;44.792;10.358;2023-05-20T10:48:57;16.20;99.90
22850;DHT22;11591;44.792;10.358;2023-05-20T10:51:23;16.00;99.90
22850;DHT22;11591;44.792;10.358;2023-05-20T10:53:52;16.00;99.90
22850;DHT22;11591;44.792;10.358;2023-05-20T10:56:22;16.00;99.90
22850;DHT22;11591;44.792;10.358;2023-05-20T10:58:49;16.00;99.90
22850;DHT22;11591;44.792;10.358;2023-05-20T11:01:16;16.00;99.90
22850;DHT22;11591;44.792;10.358;2023-05-20T11:03:44;16.00;99.90
22850;DHT22;11591;44.792;10.358;2023-05-20T11:06:14;16.00;99.90
22850;DHT22;11591;44.792;10.358;2023-05-20T11:08:39;16.00;99.90
22850;DHT22;11591;44.792;10.358;2023-05-20T11:11:06;15.90;99.90
22850;DHT22;11591;44.792;10.358;2023-05-20T11:13:32;16.00;99.90
22850;DHT22;11591;44.792;10.358;2023-05-20T11:15:59;16.00;99.90
22850;DHT22;11591;44.792;10.358;2023-05-20T11:18:28;15.90;99.90
22850;DHT22;11591;44.792;10.358;2023-05-20T11:21:01;15.80;99.90
22850;DHT22;11591;44.792;10.358;2023-05-20T11:23:28;15.80;99.90
22850;DHT22;11591;44.792;10.358;2023-05-20T11:25:56;15.80;99.90
22850;DHT22;11591;44.792;10.358;2023-05-20T11:28:22;15.70;99.90
22850;DHT22;11591;44.792;10.358;2023-05-20T11:30:50;15.70;99.90
22850;DHT22;11591;44.792;10.358;2023-05-20T11:33:16;15.70;99.90
22850;DHT22;11591;44.792;10.358;2023-05-20T11:35:51;15.80;99.90
22850;DHT22;11591;44.792;10.358;2023-05-20T11:38:18;15.80;99.90
22850;DHT22;11591;44.792;10.358;2023-05-20T11:40:45;15.80;99.90
22850;DHT22;11591;44.792;10.358;2023-05-20T11:43:13;15.90;99.90
22850;DHT22;11591;44.792;10.358;2023-05-20T11:45:40;15.90;99.90
22850;DHT22;11591;44.792;10.358;2023-05-20T11:48:06;15.90;99.90
22850;DHT22;11591;44.792;10.358;2023-05-20T11:50:40;15.90;99.90
22850;DHT22;11591;44.792;10.358;2023-05-20T11:53:13;16.00;99.90
22850;DHT22;11591;44.792;10.358;2023-05-20T11:55:56;16.00;99.90
22850;DHT22;11591;44.792;10.358;2023-05-20T11:58:23;16.00;99.90
22850;DHT22;11591;44.792;10.358;2023-05-20T12:00:49;16.00;99.90
22850;DHT22;11591;44.792;10.358;2023-05-20T12:03:15;16.00;99.90
22850;DHT22;11591;44.792;10.358;2023-05-20T12:05:42;16.00;99.90
22850;DHT22;11591;44.792;10.358;2023-05-20T12:08:08;16.00;99.90
22850;DHT22;11591;44.792;10.358;2023-05-20T12:10:34;16.00;99.90
22850;DHT22;11591;44.792;10.358;2023-05-20T12:13:02;16.00;99.90
22850;DHT22;11591;44.792;10.358;2023-05-20T12:15:28;16.00;99.90
22850;DHT22;11591;44.792;10.358;2023-05-20T12:17:55;16.10;99.90
22850;DHT22;11591;44.792;10.358;2023-05-20T12:20:22;16.20;99.90
22850;DHT22;11591;44.792;10.358;2023-05-20T12:22:49;16.20;99.90
22850;DHT22;11591;44.792;10.358;2023-05-20T12:25:17;16.20;99.90
22850;DHT22;11591;44.792;10.358;2023-05-20T12:27:44;16.30;99.90
22850;DHT22;11591;44.792;10.358;2023-05-20T12:30:17;16.30;99.90
22850;DHT22;11591;44.792;10.358;2023-05-20T12:32:44;16.40;99.90
22850;DHT22;11591;44.792;10.358;2023-05-20T12:35:10;16.40;99.90
22850;DHT22;11591;44.792;10.358;2023-05-20T12:37:40;16.40;99.90
22850;DHT22;11591;44.792;10.358;2023-05-20T12:40:07;16.40;99.90
22850;DHT22;11591;44.792;10.358;2023-05-20T12:42:34;16.40;99.90
22850;DHT22;11591;44.792;10.358;2023-05-20T12:45:00;16.50;99.90
22850;DHT22;11591;44.792;10.358;2023-05-20T12:47:26;16.50;99.90
22850;DHT22;11591;44.792;10.358;2023-05-20T12:49:52;16.60;99.90
22850;DHT22;11591;44.792;10.358;2023-05-20T12:52:18;16.60;99.90
22850;DHT22;11591;44.792;10.358;2023-05-20T12:54:44;16.60;99.90
22850;DHT22;11591;44.792;10.358;2023-05-20T12:57:10;16.70;99.90
22850;DHT22;11591;44.792;10.358;2023-05-20T12:59:36;16.70;99.90
22850;DHT22;11591;44.792;10.358;2023-05-20T13:02:01;16.70;99.90
22850;DHT22;11591;44.792;10.358;2023-05-20T13:04:27;16.70;99.90
22850;DHT22;11591;44.792;10.358;2023-05-20T13:06:53;16.80;99.90
22850;DHT22;11591;44.792;10.358;2023-05-20T13:09:19;16.80;99.90
22850;DHT22;11591;44.792;10.358;2023-05-20T13:11:45;16.80;99.90
22850;DHT22;11591;44.792;10.358;2023-05-20T13:14:11;16.80;99.90
22850;DHT22;11591;44.792;10.358;2023-05-20T13:16:37;16.90;99.90
22850;DHT22;11591;44.792;10.358;2023-05-20T13:19:03;16.90;99.90
22850;DHT22;11591;44.792;10.358;2023-05-20T13:21:28;17.00;99.90
22850;DHT22;11591;44.792;10.358;2023-05-20T13:23:54;17.00;99.90
22850;DHT22;11591;44.792;10.358;2023-05-20T13:26:20;17.10;99.90
22850;DHT22;11591;44.792;10.358;2023-05-20T13:28:47;17.10;99.90
22850;DHT22;11591;44.792;10.358;2023-05-20T13:31:15;17.20;99.90
22850;DHT22;11591;44.792;10.358;2023-05-20T13:33:41;17.20;99.90
22850;DHT22;11591;44.792;10.358;2023-05-20T13:36:11;17.30;99.90
22850;DHT22;11591;44.792;10.358;2023-05-20T13:38:37;17.30;99.90
22850;DHT22;11591;44.792;10.358;2023-05-20T13:41:03;17.40;99.90
22850;DHT22;11591;44.792;10.358;2023-05-20T13:43:30;17.40;99.90
22850;DHT22;11591;44.792;10.358;2023-05-20T13:45:56;17.40;99.90
22850;DHT22;11591;44.792;10.358;2023-05-20T13:48:22;17.40;99.90
22850;DHT22;11591;44.792;10.358;2023-05-20T13:50:47;17.50;99.90
22850;DHT22;11591;44.792;10.358;2023-05-20T13:53:13;17.50;99.90
22850;DHT22;11591;44.792;10.358;2023-05-20T13:55:40;17.50;99.90
22850;DHT22;11591;44.792;10.358;2023-05-20T13:58:06;17.50;99.90
22850;DHT22;11591;44.792;10.358;2023-05-20T14:00:38;17.60;99.90
22850;DHT22;11591;44.792;10.358;2023-05-20T14:03:03;17.60;99.90
22850;DHT22;11591;44.792;10.358;2023-05-20T14:05:30;17.60;99.90
22850;DHT22;11591;44.792;10.358;2023-05-20T14:07:57;17.60;99.90
22850;DHT22;11591;44.792;10.358;2023-05-20T14:10:23;17.50;99.90
22850;DHT22;11591;44.792;10.358;2023-05-20T14:12:48;17.50;99.90
22850;DHT22;11591;44.792;10.358;2023-05-20T14:15:14;17.50;99.90
22850;DHT22;11591;44.792;10.358;2023-05-20T14:17:40;17.50;99.90
22850;DHT22;11591;44.792;10.358;2023-05-20T14:20:07;17.50;99.90
22850;DHT22;11591;44.792;10.358;2023-05-20T14:22:33;17.50;99.90
22850;DHT22;11591;44.792;10.358;2023-05-20T14:24:59;17.50;99.90
22850;DHT22;11591;44.792;10.358;2023-05-20T14:27:24;17.40;99.90
22850;DHT22;11591;44.792;10.358;2023-05-20T14:29:50;17.50;99.90
22850;DHT22;11591;44.792;10.358;2023-05-20T14:32:16;17.40;99.90
22850;DHT22;11591;44.792;10.358;2023-05-20T14:34:42;17.40;99.90
22850;DHT22;11591;44.792;10.358;2023-05-20T14:37:07;17.50;99.90
22850;DHT22;11591;44.792;10.358;2023-05-20T14:39:35;17.40;99.90
22850;DHT22;11591;44.792;10.358;2023-05-20T14:42:01;17.40;99.90
22850;DHT22;11591;44.792;10.358;2023-05-20T14:44:28;17.40;99.90
22850;DHT22;11591;44.792;10.358;2023-05-20T14:46:53;17.40;99.90
22850;DHT22;11591;44.792;10.358;2023-05-20T14:49:19;17.50;99.90
22850;DHT22;11591;44.792;10.358;2023-05-20T14:51:45;17.40;99.90
22850;DHT22;11591;44.792;10.358;2023-05-20T14:54:11;17.40;99.90
22850;DHT22;11591;44.792;10.358;2023-05-20T14:56:39;17.40;99.90
22850;DHT22;11591;44.792;10.358;2023-05-20T14:59:05;17.30;99.90
22850;DHT22;11591;44.792;10.358;2023-05-20T15:01:32;17.40;99.90
22850;DHT22;11591;44.792;10.358;2023-05-20T15:03:58;17.30;99.90
22850;DHT22;11591;44.792;10.358;2023-05-20T15:06:24;17.30;99.90
22850;DHT22;11591;44.792;10.358;2023-05-20T15:08:50;17.30;99.90
22850;DHT22;11591;44.792;10.358;2023-05-20T15:11:17;17.30;99.90
22850;DHT22;11591;44.792;10.358;2023-05-20T15:13:42;17.30;99.90
22850;DHT22;11591;44.792;10.358;2023-05-20T15:16:11;17.30;99.90
22850;DHT22;11591;44.792;10.358;2023-05-20T15:18:37;17.30;99.90
22850;DHT22;11591;44.792;10.358;2023-05-20T15:21:03;17.30;99.90
22850;DHT22;11591;44.792;10.358;2023-05-20T15:23:29;17.30;99.90
22850;DHT22;11591;44.792;10.358;2023-05-20T15:25:55;17.30;99.90